sensor_id;sensor_type;location;lat;lon;timestamp;P1;durP1;ratioP1;P2;durP2;ratioP2
3036;SDS011;1528;52.550;13.408;2023-02-28T00:02:00;12.53;;;11.93;;
3036;SDS011;1528;52.550;13.408;2023-02-28T00:04:45;13.17;;;12.37;;
3036;SDS011;1528;52.550;13.408;2023-02-28T00:07:36;12.60;;;11.90;;
3036;SDS011;1528;52.550;13.408;2023-02-28T00:10:24;13.70;;;12.90;;
3036;SDS011;1528;52.550;13.408;2023-02-28T00:13:11;14.30;;;13.53;;
3036;SDS011;1528;52.550;13.408;2023-02-28T00:16:00;13.80;;;12.80;;
3036;SDS011;1528;52.550;13.408;2023-02-28T00:18:47;12.20;;;11.40;;
3036;SDS011;1528;52.550;13.408;2023-02-28T00:21:33;12.07;;;11.27;;
3036;SDS011;1528;52.550;13.408;2023-02-28T00:24:19;13.10;;;12.30;;
3036;SDS011;1528;52.550;13.408;2023-02-28T00:27:06;13.33;;;12.63;;
3036;SDS011;1528;52.550;13.408;2023-02-28T00:29:51;13.00;;;12.30;;
3036;SDS011;1528;52.550;13.408;2023-02-28T00:32:37;12.30;;;11.60;;
3036;SDS011;1528;52.550;13.408;2023-02-28T00:35:23;12.40;;;11.80;;
3036;SDS011;1528;52.550;13.408;2023-02-28T00:38:09;10.97;;;10.10;;
3036;SDS011;1528;52.550;13.408;2023-02-28T00:40:54;11.13;;;10.43;;
3036;SDS011;1528;52.550;13.408;2023-02-28T00:43:41;11.00;;;10.40;;
3036;SDS011;1528;52.550;13.408;2023-02-28T00:46:27;13.13;;;12.50;;
3036;SDS011;1528;52.550;13.408;2023-02-28T00:49:13;10.30;;;9.70;;
3036;SDS011;1528;52.550;13.408;2023-02-28T00:51:58;11.13;;;10.50;;
3036;SDS011;1528;52.550;13.408;2023-02-28T00:54:44;11.37;;;10.70;;
3036;SDS011;1528;52.550;13.408;2023-02-28T00:57:31;11.03;;;10.43;;
3036;SDS011;1528;52.550;13.408;2023-02-28T01:00:18;12.33;;;11.40;;
3036;SDS011;1528;52.550;13.408;2023-02-28T01:03:04;10.83;;;10.13;;
3036;SDS011;1528;52.550;13.408;2023-02-28T01:05:50;12.10;;;11.47;;
3036;SDS011;1528;52.550;13.408;2023-02-28T01:08:36;12.70;;;12.00;;
3036;SDS011;1528;52.550;13.408;2023-02-28T01:11:22;12.97;;;11.97;;
3036;SDS011;1528;52.550;13.408;2023-02-28T01:14:08;10.97;;;10.17;;
3036;SDS011;1528;52.550;13.408;2023-02-28T01:16:55;9.83;;;9.13;;
3036;SDS011;1528;52.550;13.408;2023-02-28T01:19:40;11.80;;;11.20;;
3036;SDS011;1528;52.550;13.408;2023-02-28T01:22:26;12.10;;;11.30;;
3036;SDS011;1528;52.550;13.408;2023-02-28T01:25:11;11.17;;;10.57;;
3036;SDS011;1528;52.550;13.408;2023-02-28T01:27:57;10.37;;;9.77;;
3036;SDS011;1528;52.550;13.408;2023-02-28T01:30:46;9.60;;;8.90;;
3036;SDS011;1528;52.550;13.408;2023-02-28T01:33:34;11.07;;;10.47;;
3036;SDS011;1528;52.550;13.408;2023-02-28T01:36:21;10.60;;;9.90;;
3036;SDS011;1528;52.550;13.408;2023-02-28T01:39:08;11.63;;;10.97;;
3036;SDS011;1528;52.550;13.408;2023-02-28T01:41:53;11.80;;;11.10;;
3036;SDS011;1528;52.550;13.408;2023-02-28T01:44:56;12.60;;;11.90;;
3036;SDS011;1528;52.550;13.408;2023-02-28T01:47:44;13.40;;;12.57;;
3036;SDS011;1528;52.550;13.408;2023-02-28T01:50:34;12.20;;;11.50;;
3036;SDS011;1528;52.550;13.408;2023-02-28T01:53:21;12.27;;;11.30;;
3036;SDS011;1528;52.550;13.408;2023-02-28T01:56:15;10.87;;;10.23;;
3036;SDS011;1528;52.550;13.408;2023-02-28T01:59:04;12.97;;;12.27;;
3036;SDS011;1528;52.550;13.408;2023-02-28T02:01:50;10.77;;;10.07;;
3036;SDS011;1528;52.550;13.408;2023-02-28T02:04:37;12.50;;;11.80;;
3036;SDS011;1528;52.550;13.408;2023-02-28T02:07:28;13.10;;;12.30;;
3036;SDS011;1528;52.550;13.408;2023-02-28T02:10:15;12.77;;;11.97;;
3036;SDS011;1528;52.550;13.408;2023-02-28T02:13:05;11.63;;;10.90;;
3036;SDS011;1528;52.550;13.408;2023-02-28T02:16:00;11.87;;;10.90;;
3036;SDS011;1528;52.550;13.408;2023-02-28T02:18:57;12.17;;;11.37;;
3036;SDS011;1528;52.550;13.408;2023-02-28T02:25:24;12.93;;;12.23;;
3036;SDS011;1528;52.550;13.408;2023-02-28T02:28:18;13.67;;;12.87;;
3036;SDS011;1528;52.550;13.408;2023-02-28T02:31:23;13.37;;;12.67;;
3036;SDS011;1528;52.550;13.408;2023-02-28T02:34:39;10.97;;;10.23;;
3036;SDS011;1528;52.550;13.408;2023-02-28T02:37:29;13.53;;;11.10;;
3036;SDS011;1528;52.550;13.408;2023-02-28T02:40:22;10.70;;;10.10;;
3036;SDS011;1528;52.550;13.408;2023-02-28T02:43:13;11.10;;;10.40;;
3036;SDS011;1528;52.550;13.408;2023-02-28T02:46:02;11.30;;;10.40;;
3036;SDS011;1528;52.550;13.408;2023-02-28T02:48:51;12.43;;;11.63;;
3036;SDS011;1528;52.550;13.408;2023-02-28T02:51:41;11.60;;;10.80;;
3036;SDS011;1528;52.550;13.408;2023-02-28T02:54:28;12.17;;;11.17;;
3036;SDS011;1528;52.550;13.408;2023-02-28T02:57:17;10.50;;;9.80;;
3036;SDS011;1528;52.550;13.408;2023-02-28T03:00:08;11.10;;;10.30;;
3036;SDS011;1528;52.550;13.408;2023-02-28T03:02:55;12.53;;;11.77;;
3036;SDS011;1528;52.550;13.408;2023-02-28T03:05:42;11.73;;;10.93;;
3036;SDS011;1528;52.550;13.408;2023-02-28T03:08:33;12.67;;;11.97;;
3036;SDS011;1528;52.550;13.408;2023-02-28T03:11:20;12.80;;;12.00;;
3036;SDS011;1528;52.550;13.408;2023-02-28T03:17:21;13.03;;;12.20;;
3036;SDS011;1528;52.550;13.408;2023-02-28T03:20:27;12.10;;;11.40;;
3036;SDS011;1528;52.550;13.408;2023-02-28T03:23:21;12.73;;;12.13;;
3036;SDS011;1528;52.550;13.408;2023-02-28T03:26:18;12.77;;;11.97;;
3036;SDS011;1528;52.550;13.408;2023-02-28T03:29:08;12.90;;;11.97;;
3036;SDS011;1528;52.550;13.408;2023-02-28T03:32:03;13.17;;;12.17;;
3036;SDS011;1528;52.550;13.408;2023-02-28T03:34:58;13.73;;;12.83;;
3036;SDS011;1528;52.550;13.408;2023-02-28T03:37:50;12.87;;;12.00;;
3036;SDS011;1528;52.550;13.408;2023-02-28T03:40:41;13.37;;;12.53;;
3036;SDS011;1528;52.550;13.408;2023-02-28T03:43:31;12.90;;;12.00;;
3036;SDS011;1528;52.550;13.408;2023-02-28T03:46:22;14.27;;;13.33;;
3036;SDS011;1528;52.550;13.408;2023-02-28T03:49:11;13.80;;;12.80;;
3036;SDS011;1528;52.550;13.408;2023-02-28T03:52:02;13.90;;;13.00;;
3036;SDS011;1528;52.550;13.408;2023-02-28T03:54:52;14.67;;;13.57;;
3036;SDS011;1528;52.550;13.408;2023-02-28T03:57:41;13.17;;;12.23;;
3036;SDS011;1528;52.550;13.408;2023-02-28T04:00:34;14.00;;;12.90;;
3036;SDS011;1528;52.550;13.408;2023-02-28T04:03:23;14.03;;;13.10;;
3036;SDS011;1528;52.550;13.408;2023-02-28T04:06:12;12.87;;;11.80;;
3036;SDS011;1528;52.550;13.408;2023-02-28T04:09:02;13.90;;;12.70;;
3036;SDS011;1528;52.550;13.408;2023-02-28T04:11:50;14.57;;;13.50;;
3036;SDS011;1528;52.550;13.408;2023-02-28T04:14:39;13.87;;;13.07;;
3036;SDS011;1528;52.550;13.408;2023-02-28T04:17:26;15.83;;;14.63;;
3036;SDS011;1528;52.550;13.408;2023-02-28T04:20:12;15.30;;;14.13;;
3036;SDS011;1528;52.550;13.408;2023-02-28T04:22:58;12.87;;;11.97;;
3036;SDS011;1528;52.550;13.408;2023-02-28T04:25:43;13.57;;;12.70;;
3036;SDS011;1528;52.550;13.408;2023-02-28T04:28:29;13.23;;;12.30;;
3036;SDS011;1528;52.550;13.408;2023-02-28T04:31:15;14.23;;;13.20;;
3036;SDS011;1528;52.550;13.408;2023-02-28T04:34:02;13.90;;;13.00;;
3036;SDS011;1528;52.550;13.408;2023-02-28T04:36:48;14.47;;;13.67;;
3036;SDS011;1528;52.550;13.408;2023-02-28T04:39:34;16.03;;;15.13;;
3036;SDS011;1528;52.550;13.408;2023-02-28T04:42:21;13.37;;;12.57;;
3036;SDS011;1528;52.550;13.408;2023-02-28T04:45:07;15.13;;;14.03;;
3036;SDS011;1528;52.550;13.408;2023-02-28T04:47:54;15.50;;;14.40;;
3036;SDS011;1528;52.550;13.408;2023-02-28T04:50:41;14.90;;;13.70;;
3036;SDS011;1528;52.550;13.408;2023-02-28T04:53:27;20.47;;;18.57;;
3036;SDS011;1528;52.550;13.408;2023-02-28T04:56:14;22.30;;;20.07;;
3036;SDS011;1528;52.550;13.408;2023-02-28T04:59:01;18.23;;;16.60;;
3036;SDS011;1528;52.550;13.408;2023-02-28T05:01:48;17.80;;;16.20;;
3036;SDS011;1528;52.550;13.408;2023-02-28T05:04:34;17.63;;;16.33;;
3036;SDS011;1528;52.550;13.408;2023-02-28T05:07:22;15.50;;;14.50;;
3036;SDS011;1528;52.550;13.408;2023-02-28T05:10:08;14.57;;;13.47;;
3036;SDS011;1528;52.550;13.408;2023-02-28T05:12:54;14.70;;;13.60;;
3036;SDS011;1528;52.550;13.408;2023-02-28T05:15:40;15.10;;;14.10;;
3036;SDS011;1528;52.550;13.408;2023-02-28T05:18:26;15.07;;;13.67;;
3036;SDS011;1528;52.550;13.408;2023-02-28T05:21:21;14.17;;;13.27;;
3036;SDS011;1528;52.550;13.408;2023-02-28T05:24:11;14.90;;;13.90;;
3036;SDS011;1528;52.550;13.408;2023-02-28T05:26:56;15.00;;;14.00;;
3036;SDS011;1528;52.550;13.408;2023-02-28T05:29:42;16.30;;;15.20;;
3036;SDS011;1528;52.550;13.408;2023-02-28T05:32:28;14.50;;;13.50;;
3036;SDS011;1528;52.550;13.408;2023-02-28T05:35:14;13.83;;;12.93;;
3036;SDS011;1528;52.550;13.408;2023-02-28T05:37:59;13.43;;;12.47;;
3036;SDS011;1528;52.550;13.408;2023-02-28T05:40:46;15.33;;;14.03;;
3036;SDS011;1528;52.550;13.408;2023-02-28T05:43:32;14.93;;;13.93;;
3036;SDS011;1528;52.550;13.408;2023-02-28T05:46:18;16.10;;;14.90;;
3036;SDS011;1528;52.550;13.408;2023-02-28T05:49:03;15.90;;;14.67;;
3036;SDS011;1528;52.550;13.408;2023-02-28T05:51:49;15.83;;;14.73;;
3036;SDS011;1528;52.550;13.408;2023-02-28T05:54:35;16.07;;;14.83;;
3036;SDS011;1528;52.550;13.408;2023-02-28T05:57:22;15.40;;;14.40;;
3036;SDS011;1528;52.550;13.408;2023-02-28T06:00:08;15.10;;;13.80;;
3036;SDS011;1528;52.550;13.408;2023-02-28T06:02:55;16.47;;;15.20;;
3036;SDS011;1528;52.550;13.408;2023-02-28T06:05:46;15.33;;;13.90;;
3036;SDS011;1528;52.550;13.408;2023-02-28T06:08:32;15.17;;;13.77;;
3036;SDS011;1528;52.550;13.408;2023-02-28T06:11:17;16.67;;;15.37;;
3036;SDS011;1528;52.550;13.408;2023-02-28T06:14:05;17.33;;;15.83;;
3036;SDS011;1528;52.550;13.408;2023-02-28T06:16:50;15.93;;;14.77;;
3036;SDS011;1528;52.550;13.408;2023-02-28T06:19:36;18.03;;;16.53;;
3036;SDS011;1528;52.550;13.408;2023-02-28T06:22:23;18.83;;;17.43;;
3036;SDS011;1528;52.550;13.408;2023-02-28T06:25:09;19.37;;;17.77;;
3036;SDS011;1528;52.550;13.408;2023-02-28T06:27:55;18.77;;;17.33;;
3036;SDS011;1528;52.550;13.408;2023-02-28T06:30:42;19.63;;;18.13;;
3036;SDS011;1528;52.550;13.408;2023-02-28T06:33:28;20.63;;;18.67;;
3036;SDS011;1528;52.550;13.408;2023-02-28T06:36:14;18.63;;;17.10;;
3036;SDS011;1528;52.550;13.408;2023-02-28T06:39:00;21.43;;;19.70;;
3036;SDS011;1528;52.550;13.408;2023-02-28T06:41:46;17.80;;;16.40;;
3036;SDS011;1528;52.550;13.408;2023-02-28T06:44:32;19.30;;;17.60;;
3036;SDS011;1528;52.550;13.408;2023-02-28T06:47:21;18.60;;;17.10;;
3036;SDS011;1528;52.550;13.408;2023-02-28T06:50:07;21.10;;;19.50;;
3036;SDS011;1528;52.550;13.408;2023-02-28T06:52:59;23.53;;;21.70;;
3036;SDS011;1528;52.550;13.408;2023-02-28T06:55:44;21.73;;;20.13;;
3036;SDS011;1528;52.550;13.408;2023-02-28T06:58:30;19.40;;;17.90;;
3036;SDS011;1528;52.550;13.408;2023-02-28T07:01:18;19.83;;;18.13;;
3036;SDS011;1528;52.550;13.408;2023-02-28T07:04:07;19.07;;;17.67;;
3036;SDS011;1528;52.550;13.408;2023-02-28T07:06:54;20.73;;;19.13;;
3036;SDS011;1528;52.550;13.408;2023-02-28T07:09:40;19.93;;;18.43;;
3036;SDS011;1528;52.550;13.408;2023-02-28T07:12:26;18.63;;;17.13;;
3036;SDS011;1528;52.550;13.408;2023-02-28T07:15:11;19.33;;;17.63;;
3036;SDS011;1528;52.550;13.408;2023-02-28T07:17:57;20.47;;;18.53;;
3036;SDS011;1528;52.550;13.408;2023-02-28T07:20:44;16.37;;;14.97;;
3036;SDS011;1528;52.550;13.408;2023-02-28T07:23:30;17.00;;;15.60;;
3036;SDS011;1528;52.550;13.408;2023-02-28T07:26:16;16.20;;;14.90;;
3036;SDS011;1528;52.550;13.408;2023-02-28T07:29:03;18.13;;;16.43;;
3036;SDS011;1528;52.550;13.408;2023-02-28T07:31:48;18.90;;;17.40;;
3036;SDS011;1528;52.550;13.408;2023-02-28T07:34:36;18.77;;;17.47;;
3036;SDS011;1528;52.550;13.408;2023-02-28T07:37:23;19.57;;;18.07;;
3036;SDS011;1528;52.550;13.408;2023-02-28T07:40:10;17.87;;;16.50;;
3036;SDS011;1528;52.550;13.408;2023-02-28T07:42:57;20.20;;;18.50;;
3036;SDS011;1528;52.550;13.408;2023-02-28T07:45:44;21.03;;;19.33;;
3036;SDS011;1528;52.550;13.408;2023-02-28T07:48:29;21.77;;;19.97;;
3036;SDS011;1528;52.550;13.408;2023-02-28T07:51:15;20.27;;;18.57;;
3036;SDS011;1528;52.550;13.408;2023-02-28T07:54:02;18.93;;;17.40;;
3036;SDS011;1528;52.550;13.408;2023-02-28T07:56:48;17.13;;;15.73;;
3036;SDS011;1528;52.550;13.408;2023-02-28T07:59:33;18.23;;;17.03;;
3036;SDS011;1528;52.550;13.408;2023-02-28T08:02:19;18.03;;;16.53;;
3036;SDS011;1528;52.550;13.408;2023-02-28T08:05:05;17.17;;;15.60;;
3036;SDS011;1528;52.550;13.408;2023-02-28T08:07:51;17.20;;;15.90;;
3036;SDS011;1528;52.550;13.408;2023-02-28T08:10:39;17.27;;;15.93;;
3036;SDS011;1528;52.550;13.408;2023-02-28T08:13:25;15.50;;;14.13;;
3036;SDS011;1528;52.550;13.408;2023-02-28T08:16:12;16.90;;;15.70;;
3036;SDS011;1528;52.550;13.408;2023-02-28T08:19:01;13.60;;;12.40;;
3036;SDS011;1528;52.550;13.408;2023-02-28T08:21:46;13.57;;;12.67;;
3036;SDS011;1528;52.550;13.408;2023-02-28T08:24:32;11.93;;;10.23;;
3036;SDS011;1528;52.550;13.408;2023-02-28T08:27:19;11.57;;;10.67;;
3036;SDS011;1528;52.550;13.408;2023-02-28T08:30:06;11.00;;;10.20;;
3036;SDS011;1528;52.550;13.408;2023-02-28T08:32:53;10.63;;;9.70;;
3036;SDS011;1528;52.550;13.408;2023-02-28T08:35:39;10.43;;;9.83;;
3036;SDS011;1528;52.550;13.408;2023-02-28T08:38:24;10.50;;;9.80;;
3036;SDS011;1528;52.550;13.408;2023-02-28T08:41:11;10.50;;;9.67;;
3036;SDS011;1528;52.550;13.408;2023-02-28T08:43:58;10.00;;;9.20;;
3036;SDS011;1528;52.550;13.408;2023-02-28T08:46:45;9.53;;;8.93;;
3036;SDS011;1528;52.550;13.408;2023-02-28T08:49:53;10.23;;;9.47;;
3036;SDS011;1528;52.550;13.408;2023-02-28T08:52:39;9.47;;;8.67;;
3036;SDS011;1528;52.550;13.408;2023-02-28T08:55:27;7.67;;;7.20;;
3036;SDS011;1528;52.550;13.408;2023-02-28T08:58:13;9.30;;;8.70;;
3036;SDS011;1528;52.550;13.408;2023-02-28T09:01:06;8.50;;;7.90;;
3036;SDS011;1528;52.550;13.408;2023-02-28T09:03:53;8.70;;;8.20;;
3036;SDS011;1528;52.550;13.408;2023-02-28T09:06:40;8.47;;;7.87;;
3036;SDS011;1528;52.550;13.408;2023-02-28T09:09:29;8.90;;;8.50;;
3036;SDS011;1528;52.550;13.408;2023-02-28T09:12:14;9.57;;;8.83;;
3036;SDS011;1528;52.550;13.408;2023-02-28T09:15:01;9.13;;;8.53;;
3036;SDS011;1528;52.550;13.408;2023-02-28T09:17:48;11.07;;;10.17;;
3036;SDS011;1528;52.550;13.408;2023-02-28T09:20:33;9.20;;;8.60;;
3036;SDS011;1528;52.550;13.408;2023-02-28T09:23:19;9.30;;;8.70;;
3036;SDS011;1528;52.550;13.408;2023-02-28T09:26:05;10.83;;;10.13;;
3036;SDS011;1528;52.550;13.408;2023-02-28T09:28:51;12.70;;;11.70;;
3036;SDS011;1528;52.550;13.408;2023-02-28T09:31:38;9.57;;;9.13;;
3036;SDS011;1528;52.550;13.408;2023-02-28T09:34:25;9.53;;;8.93;;
3036;SDS011;1528;52.550;13.408;2023-02-28T09:37:11;10.17;;;9.67;;
3036;SDS011;1528;52.550;13.408;2023-02-28T09:39:57;7.70;;;7.30;;
3036;SDS011;1528;52.550;13.408;2023-02-28T09:42:42;9.60;;;9.10;;
3036;SDS011;1528;52.550;13.408;2023-02-28T09:45:31;9.13;;;8.63;;
3036;SDS011;1528;52.550;13.408;2023-02-28T09:48:19;9.00;;;8.50;;
3036;SDS011;1528;52.550;13.408;2023-02-28T09:51:12;8.37;;;7.97;;
3036;SDS011;1528;52.550;13.408;2023-02-28T09:54:13;8.27;;;7.83;;
3036;SDS011;1528;52.550;13.408;2023-02-28T09:57:05;8.93;;;8.53;;
3036;SDS011;1528;52.550;13.408;2023-02-28T10:00:02;9.63;;;9.10;;
3036;SDS011;1528;52.550;13.408;2023-02-28T10:02:55;7.27;;;6.87;;
3036;SDS011;1528;52.550;13.408;2023-02-28T10:05:48;7.27;;;6.97;;
3036;SDS011;1528;52.550;13.408;2023-02-28T10:08:40;8.80;;;8.40;;
3036;SDS011;1528;52.550;13.408;2023-02-28T10:11:32;8.67;;;8.17;;
3036;SDS011;1528;52.550;13.408;2023-02-28T10:14:20;9.10;;;8.80;;
3036;SDS011;1528;52.550;13.408;2023-02-28T10:17:08;6.87;;;6.57;;
3036;SDS011;1528;52.550;13.408;2023-02-28T10:19:58;9.10;;;8.70;;
3036;SDS011;1528;52.550;13.408;2023-02-28T10:22:52;9.43;;;8.93;;
3036;SDS011;1528;52.550;13.408;2023-02-28T10:25:44;8.33;;;7.83;;
3036;SDS011;1528;52.550;13.408;2023-02-28T10:28:32;8.60;;;8.30;;
3036;SDS011;1528;52.550;13.408;2023-02-28T10:31:18;12.90;;;12.03;;
3036;SDS011;1528;52.550;13.408;2023-02-28T10:34:04;9.57;;;9.17;;
3036;SDS011;1528;52.550;13.408;2023-02-28T10:36:50;8.60;;;8.20;;
3036;SDS011;1528;52.550;13.408;2023-02-28T10:39:38;10.03;;;9.53;;
3036;SDS011;1528;52.550;13.408;2023-02-28T10:42:26;8.80;;;8.30;;
3036;SDS011;1528;52.550;13.408;2023-02-28T10:45:14;10.20;;;9.80;;
3036;SDS011;1528;52.550;13.408;2023-02-28T10:48:01;10.67;;;9.90;;
3036;SDS011;1528;52.550;13.408;2023-02-28T10:50:50;12.07;;;11.10;;
3036;SDS011;1528;52.550;13.408;2023-02-28T10:53:39;7.97;;;7.53;;
3036;SDS011;1528;52.550;13.408;2023-02-28T10:56:32;10.00;;;9.50;;
3036;SDS011;1528;52.550;13.408;2023-02-28T10:59:26;10.60;;;10.00;;
3036;SDS011;1528;52.550;13.408;2023-02-28T11:02:30;8.97;;;8.47;;
3036;SDS011;1528;52.550;13.408;2023-02-28T11:05:24;9.63;;;9.23;;
3036;SDS011;1528;52.550;13.408;2023-02-28T11:08:12;8.40;;;7.90;;
3036;SDS011;1528;52.550;13.408;2023-02-28T11:11:00;9.17;;;8.50;;
3036;SDS011;1528;52.550;13.408;2023-02-28T11:13:50;9.40;;;9.03;;
3036;SDS011;1528;52.550;13.408;2023-02-28T11:16:39;8.20;;;7.77;;
3036;SDS011;1528;52.550;13.408;2023-02-28T11:19:25;9.77;;;9.17;;
3036;SDS011;1528;52.550;13.408;2023-02-28T11:22:16;8.87;;;8.33;;
3036;SDS011;1528;52.550;13.408;2023-02-28T11:25:06;8.90;;;8.50;;
3036;SDS011;1528;52.550;13.408;2023-02-28T11:27:56;9.80;;;9.40;;
3036;SDS011;1528;52.550;13.408;2023-02-28T11:30:44;10.13;;;9.63;;
3036;SDS011;1528;52.550;13.408;2023-02-28T11:33:32;9.07;;;8.57;;
3036;SDS011;1528;52.550;13.408;2023-02-28T11:36:27;10.60;;;9.90;;
3036;SDS011;1528;52.550;13.408;2023-02-28T11:39:14;9.00;;;8.60;;
3036;SDS011;1528;52.550;13.408;2023-02-28T11:45:27;9.70;;;9.20;;
3036;SDS011;1528;52.550;13.408;2023-02-28T11:48:25;11.53;;;11.00;;
3036;SDS011;1528;52.550;13.408;2023-02-28T11:51:16;9.93;;;9.53;;
3036;SDS011;1528;52.550;13.408;2023-02-28T11:54:09;10.70;;;10.10;;
3036;SDS011;1528;52.550;13.408;2023-02-28T11:57:12;8.80;;;8.40;;
3036;SDS011;1528;52.550;13.408;2023-02-28T12:00:11;10.53;;;9.87;;
3036;SDS011;1528;52.550;13.408;2023-02-28T12:03:19;10.43;;;9.93;;
3036;SDS011;1528;52.550;13.408;2023-02-28T12:06:18;8.97;;;8.57;;
3036;SDS011;1528;52.550;13.408;2023-02-28T12:09:12;9.57;;;9.03;;
3036;SDS011;1528;52.550;13.408;2023-02-28T12:12:13;10.20;;;9.70;;
3036;SDS011;1528;52.550;13.408;2023-02-28T12:15:14;9.77;;;9.33;;
3036;SDS011;1528;52.550;13.408;2023-02-28T12:18:26;9.97;;;9.47;;
3036;SDS011;1528;52.550;13.408;2023-02-28T12:21:21;9.57;;;9.03;;
3036;SDS011;1528;52.550;13.408;2023-02-28T12:24:23;11.77;;;11.17;;
3036;SDS011;1528;52.550;13.408;2023-02-28T12:27:25;10.67;;;10.00;;
3036;SDS011;1528;52.550;13.408;2023-02-28T12:30:16;11.30;;;10.70;;
3036;SDS011;1528;52.550;13.408;2023-02-28T12:33:06;9.43;;;8.93;;
3036;SDS011;1528;52.550;13.408;2023-02-28T12:35:57;10.90;;;10.30;;
3036;SDS011;1528;52.550;13.408;2023-02-28T12:38:47;10.63;;;10.17;;
3036;SDS011;1528;52.550;13.408;2023-02-28T12:41:39;10.97;;;10.47;;
3036;SDS011;1528;52.550;13.408;2023-02-28T12:44:30;10.57;;;10.07;;
3036;SDS011;1528;52.550;13.408;2023-02-28T12:47:19;10.20;;;9.60;;
3036;SDS011;1528;52.550;13.408;2023-02-28T12:50:05;8.80;;;8.30;;
3036;SDS011;1528;52.550;13.408;2023-02-28T12:52:55;8.70;;;8.30;;
3036;SDS011;1528;52.550;13.408;2023-02-28T12:55:48;10.03;;;9.43;;
3036;SDS011;1528;52.550;13.408;2023-02-28T12:58:39;10.63;;;10.07;;
3036;SDS011;1528;52.550;13.408;2023-02-28T13:01:35;10.03;;;9.53;;
3036;SDS011;1528;52.550;13.408;2023-02-28T13:04:43;11.03;;;10.47;;
3036;SDS011;1528;52.550;13.408;2023-02-28T13:11:02;10.53;;;10.03;;
3036;SDS011;1528;52.550;13.408;2023-02-28T13:13:47;11.00;;;10.50;;
3036;SDS011;1528;52.550;13.408;2023-02-28T13:16:49;10.80;;;10.00;;
3036;SDS011;1528;52.550;13.408;2023-02-28T13:19:41;11.43;;;10.93;;
3036;SDS011;1528;52.550;13.408;2023-02-28T13:22:39;10.47;;;9.97;;
3036;SDS011;1528;52.550;13.408;2023-02-28T13:32:19;9.80;;;9.30;;
3036;SDS011;1528;52.550;13.408;2023-02-28T13:38:36;9.90;;;9.30;;
3036;SDS011;1528;52.550;13.408;2023-02-28T13:48:15;10.23;;;9.73;;
3036;SDS011;1528;52.550;13.408;2023-02-28T13:54:24;10.20;;;9.70;;
3036;SDS011;1528;52.550;13.408;2023-02-28T13:57:23;9.80;;;9.30;;
3036;SDS011;1528;52.550;13.408;2023-02-28T14:00:28;9.63;;;9.13;;
3036;SDS011;1528;52.550;13.408;2023-02-28T14:03:25;8.70;;;8.20;;
3036;SDS011;1528;52.550;13.408;2023-02-28T14:06:31;10.10;;;9.40;;
3036;SDS011;1528;52.550;13.408;2023-02-28T14:09:19;11.07;;;10.40;;
3036;SDS011;1528;52.550;13.408;2023-02-28T14:15:47;11.33;;;10.83;;
3036;SDS011;1528;52.550;13.408;2023-02-28T14:18:42;10.10;;;9.30;;
3036;SDS011;1528;52.550;13.408;2023-02-28T14:21:34;9.63;;;9.00;;
3036;SDS011;1528;52.550;13.408;2023-02-28T14:24:47;9.47;;;8.93;;
3036;SDS011;1528;52.550;13.408;2023-02-28T14:27:49;9.93;;;9.37;;
3036;SDS011;1528;52.550;13.408;2023-02-28T14:30:56;10.30;;;9.70;;
3036;SDS011;1528;52.550;13.408;2023-02-28T14:33:53;8.60;;;8.10;;
3036;SDS011;1528;52.550;13.408;2023-02-28T14:36:46;9.53;;;8.93;;
3036;SDS011;1528;52.550;13.408;2023-02-28T14:39:33;9.77;;;9.17;;
3036;SDS011;1528;52.550;13.408;2023-02-28T14:42:30;9.93;;;9.33;;
3036;SDS011;1528;52.550;13.408;2023-02-28T14:45:17;12.00;;;11.30;;
3036;SDS011;1528;52.550;13.408;2023-02-28T14:48:08;9.10;;;8.50;;
3036;SDS011;1528;52.550;13.408;2023-02-28T14:50:55;9.40;;;8.90;;
3036;SDS011;1528;52.550;13.408;2023-02-28T14:53:43;10.70;;;10.10;;
3036;SDS011;1528;52.550;13.408;2023-02-28T14:56:34;9.27;;;8.60;;
3036;SDS011;1528;52.550;13.408;2023-02-28T14:59:23;9.67;;;9.17;;
3036;SDS011;1528;52.550;13.408;2023-02-28T15:02:17;10.37;;;9.67;;
3036;SDS011;1528;52.550;13.408;2023-02-28T15:05:21;10.07;;;9.57;;
3036;SDS011;1528;52.550;13.408;2023-02-28T15:08:11;9.57;;;9.07;;
3036;SDS011;1528;52.550;13.408;2023-02-28T15:10:59;10.07;;;9.53;;
3036;SDS011;1528;52.550;13.408;2023-02-28T15:13:48;10.33;;;9.60;;
3036;SDS011;1528;52.550;13.408;2023-02-28T15:16:36;9.93;;;9.43;;
3036;SDS011;1528;52.550;13.408;2023-02-28T15:19:24;9.53;;;9.00;;
3036;SDS011;1528;52.550;13.408;2023-02-28T15:22:15;8.97;;;8.57;;
3036;SDS011;1528;52.550;13.408;2023-02-28T15:25:05;9.43;;;8.93;;
3036;SDS011;1528;52.550;13.408;2023-02-28T15:27:52;9.80;;;9.30;;
3036;SDS011;1528;52.550;13.408;2023-02-28T15:30:49;8.90;;;8.50;;
3036;SDS011;1528;52.550;13.408;2023-02-28T15:33:37;8.80;;;8.30;;
3036;SDS011;1528;52.550;13.408;2023-02-28T15:36:36;8.47;;;7.80;;
3036;SDS011;1528;52.550;13.408;2023-02-28T15:39:23;10.43;;;9.67;;
3036;SDS011;1528;52.550;13.408;2023-02-28T15:42:12;10.27;;;9.60;;
3036;SDS011;1528;52.550;13.408;2023-02-28T15:45:03;10.00;;;9.40;;
3036;SDS011;1528;52.550;13.408;2023-02-28T15:47:49;9.20;;;8.60;;
3036;SDS011;1528;52.550;13.408;2023-02-28T15:50:34;11.23;;;10.63;;
3036;SDS011;1528;52.550;13.408;2023-02-28T15:53:22;12.20;;;11.50;;
3036;SDS011;1528;52.550;13.408;2023-02-28T15:56:16;9.67;;;9.10;;
3036;SDS011;1528;52.550;13.408;2023-02-28T15:59:12;9.27;;;8.63;;
3036;SDS011;1528;52.550;13.408;2023-02-28T16:02:04;8.83;;;8.40;;
3036;SDS011;1528;52.550;13.408;2023-02-28T16:04:59;9.90;;;9.00;;
3036;SDS011;1528;52.550;13.408;2023-02-28T16:07:47;9.73;;;9.23;;
3036;SDS011;1528;52.550;13.408;2023-02-28T16:10:33;9.80;;;9.10;;
3036;SDS011;1528;52.550;13.408;2023-02-28T16:13:20;10.90;;;10.00;;
3036;SDS011;1528;52.550;13.408;2023-02-28T16:16:12;10.30;;;9.70;;
3036;SDS011;1528;52.550;13.408;2023-02-28T16:19:00;11.23;;;10.47;;
3036;SDS011;1528;52.550;13.408;2023-02-28T16:21:46;10.20;;;9.47;;
3036;SDS011;1528;52.550;13.408;2023-02-28T16:24:32;9.80;;;9.20;;
3036;SDS011;1528;52.550;13.408;2023-02-28T16:27:18;9.03;;;8.53;;
3036;SDS011;1528;52.550;13.408;2023-02-28T16:30:15;11.50;;;10.90;;
3036;SDS011;1528;52.550;13.408;2023-02-28T16:33:04;10.80;;;10.20;;
3036;SDS011;1528;52.550;13.408;2023-02-28T16:35:50;10.97;;;10.20;;
3036;SDS011;1528;52.550;13.408;2023-02-28T16:38:36;11.30;;;10.70;;
3036;SDS011;1528;52.550;13.408;2023-02-28T16:41:23;11.60;;;10.90;;
3036;SDS011;1528;52.550;13.408;2023-02-28T16:44:10;10.87;;;10.17;;
3036;SDS011;1528;52.550;13.408;2023-02-28T16:47:01;9.93;;;9.43;;
3036;SDS011;1528;52.550;13.408;2023-02-28T16:49:47;9.10;;;8.60;;
3036;SDS011;1528;52.550;13.408;2023-02-28T16:52:33;10.43;;;9.73;;
3036;SDS011;1528;52.550;13.408;2023-02-28T16:55:18;10.50;;;9.90;;
3036;SDS011;1528;52.550;13.408;2023-02-28T16:58:05;11.40;;;10.77;;
3036;SDS011;1528;52.550;13.408;2023-02-28T17:00:50;9.90;;;9.20;;
3036;SDS011;1528;52.550;13.408;2023-02-28T17:03:38;10.40;;;9.60;;
3036;SDS011;1528;52.550;13.408;2023-02-28T17:06:25;12.63;;;11.97;;
3036;SDS011;1528;52.550;13.408;2023-02-28T17:09:14;12.23;;;11.60;;
3036;SDS011;1528;52.550;13.408;2023-02-28T17:12:01;13.87;;;13.10;;
3036;SDS011;1528;52.550;13.408;2023-02-28T17:14:47;13.87;;;13.03;;
3036;SDS011;1528;52.550;13.408;2023-02-28T17:17:33;11.90;;;10.90;;
3036;SDS011;1528;52.550;13.408;2023-02-28T17:20:21;10.80;;;10.30;;
3036;SDS011;1528;52.550;13.408;2023-02-28T17:23:07;11.90;;;11.07;;
3036;SDS011;1528;52.550;13.408;2023-02-28T17:25:52;12.50;;;11.80;;
3036;SDS011;1528;52.550;13.408;2023-02-28T17:28:38;10.27;;;9.60;;
3036;SDS011;1528;52.550;13.408;2023-02-28T17:31:24;12.83;;;11.83;;
3036;SDS011;1528;52.550;13.408;2023-02-28T17:34:10;12.23;;;11.53;;